Time;durP1;ratioP1;P1;durP2;ratioP2;P2;SDS_P1;SDS_P2;PMS_P1;PMS_P2;Temp;Humidity;BMP_temperature;BMP_pressure;BME280_temperature;BME280_humidity;BME280_pressure;Samples;Min_cycle;Max_cycle;Signal;HPM_P1;HPM_P2
2021/11/12 00:02:12;;;;;;;1.42;1.33;;;;;;;;;;4996876;28;20037;-71
2021/11/12 00:14:52;;;;;;;2.20;2.05;;;;;;;;;;5009597;28;20366;-71
2021/11/12 00:17:19;;;;;;;0.50;0.50;;;;;;;;;;5009608;28;20108;-71
2021/11/12 00:19:45;;;;;;;4.43;0.85;;;;;;;;;;5009375;28;20034;-71
2021/11/12 00:22:12;;;;;;;1.15;1.05;;;;;;;;;;5010173;28;21867;-70
2021/11/12 00:24:38;;;;;;;2.40;1.80;;;;;;;;;;5012156;28;20029;-70
2021/11/12 00:27:05;;;;;;;0.98;0.98;;;;;;;;;;5016589;28;20485;-70
2021/11/12 00:29:43;;;;;;;1.42;1.33;;;;;;;;;;5009078;28;20030;-71
2021/11/12 00:35:06;;;;;;;4.93;1.35;;;;;;;;;;5009664;28;20049;-71
2021/11/12 00:37:52;;;;;;;3.75;1.95;;;;;;;;;;5009936;28;20025;-70
2021/11/12 00:43:29;;;;;;;1.95;1.80;;;;;;;;;;4997389;28;20034;-70
2021/11/12 00:46:11;;;;;;;2.30;2.10;;;;;;;;;;5009030;28;20034;-71
2021/11/12 00:48:44;;;;;;;3.60;1.83;;;;;;;;;;5009293;28;20029;-71
2021/11/12 00:51:37;;;;;;;1.05;1.05;;;;;;;;;;5010242;28;20061;-70
2021/11/12 00:56:26;;;;;;;3.50;1.17;;;;;;;;;;5011523;28;20030;-71
2021/11/12 00:58:53;;;;;;;2.08;1.67;;;;;;;;;;5015073;28;20049;-70
2021/11/12 01:01:19;;;;;;;6.13;1.70;;;;;;;;;;5009792;28;20030;-71
2021/11/12 01:03:47;;;;;;;1.92;1.80;;;;;;;;;;5010381;28;20067;-70
2021/11/12 01:06:13;;;;;;;0.95;0.95;;;;;;;;;;5009404;28;20129;-71
2021/11/12 01:08:39;;;;;;;1.02;0.90;;;;;;;;;;5009161;28;20116;-71
2021/11/12 01:11:05;;;;;;;1.92;1.83;;;;;;;;;;5009720;28;20037;-70
2021/11/12 01:13:32;;;;;;;2.25;2.05;;;;;;;;;;5015134;28;20026;-71
2021/11/12 01:15:58;;;;;;;1.40;1.20;;;;;;;;;;5009194;28;20157;-71
2021/11/12 01:18:24;;;;;;;1.15;0.75;;;;;;;;;;5007375;28;20037;-70
2021/11/12 01:20:50;;;;;;;4.38;1.85;;;;;;;;;;5010120;28;20033;-71
2021/11/12 01:23:17;;;;;;;3.38;3.10;;;;;;;;;;5009990;28;20030;-71
2021/11/12 01:25:43;;;;;;;1.60;1.50;;;;;;;;;;5009495;28;20025;-71
2021/11/12 01:28:10;;;;;;;1.65;1.42;;;;;;;;;;5009231;28;20030;-71
2021/11/12 01:30:35;;;;;;;2.47;2.30;;;;;;;;;;5009594;28;20495;-72
2021/11/12 01:33:02;;;;;;;14.90;2.28;;;;;;;;;;5012152;28;20034;-71
2021/11/12 01:35:28;;;;;;;2.70;2.50;;;;;;;;;;5009706;28;20029;-71
2021/11/12 01:37:54;;;;;;;6.93;3.83;;;;;;;;;;5018727;28;20096;-73
2021/11/12 01:40:24;;;;;;;3.40;1.90;;;;;;;;;;5008454;28;20030;-71
2021/11/12 01:42:56;;;;;;;2.20;2.10;;;;;;;;;;5007734;28;20673;-71
2021/11/12 01:45:31;;;;;;;3.90;3.15;;;;;;;;;;5007008;28;20101;-72
2021/11/12 01:50:44;;;;;;;2.30;1.33;;;;;;;;;;5001163;28;20076;-72
2021/11/12 01:53:13;;;;;;;3.03;1.92;;;;;;;;;;5008197;28;20032;-71
2021/11/12 01:55:54;;;;;;;1.00;0.95;;;;;;;;;;5015288;28;20022;-71
2021/11/12 02:00:49;;;;;;;4.50;2.65;;;;;;;;;;5008933;28;20034;-72
2021/11/12 02:03:15;;;;;;;1.88;1.73;;;;;;;;;;5008211;28;20026;-72
2021/11/12 02:05:41;;;;;;;2.08;1.55;;;;;;;;;;5007835;28;20089;-72
2021/11/12 02:08:10;;;;;;;1.83;1.52;;;;;;;;;;5008112;28;20046;-72
2021/11/12 02:10:37;;;;;;;3.80;2.33;;;;;;;;;;5008429;28;20038;-72
2021/11/12 02:13:08;;;;;;;2.47;1.10;;;;;;;;;;5008433;28;20026;-72
2021/11/12 02:15:36;;;;;;;1.23;0.88;;;;;;;;;;5008034;28;20026;-71
2021/11/12 02:18:06;;;;;;;0.80;0.80;;;;;;;;;;5014329;28;20638;-71
2021/11/12 02:20:46;;;;;;;1.10;1.10;;;;;;;;;;5001453;28;20037;-72
2021/11/12 02:23:12;;;;;;;1.98;0.65;;;;;;;;;;5009316;28;20030;-72
2021/11/12 02:25:40;;;;;;;4.90;2.22;;;;;;;;;;5008621;28;20088;-71
2021/11/12 02:28:13;;;;;;;1.83;1.73;;;;;;;;;;5009050;28;20034;-72
2021/11/12 02:30:40;;;;;;;1.08;0.85;;;;;;;;;;5010217;28;20118;-72
2021/11/12 02:33:20;;;;;;;0.82;0.82;;;;;;;;;;5007997;28;20099;-71
2021/11/12 02:36:05;;;;;;;2.35;1.83;;;;;;;;;;5008585;28;20083;-72
2021/11/12 02:38:33;;;;;;;0.93;0.93;;;;;;;;;;5008754;28;20036;-72
2021/11/12 02:40:59;;;;;;;1.52;1.45;;;;;;;;;;5007304;28;20149;-71
2021/11/12 02:43:25;;;;;;;1.73;1.63;;;;;;;;;;5008232;28;20041;-71
2021/11/12 02:45:51;;;;;;;2.15;1.85;;;;;;;;;;5008432;28;20025;-71
2021/11/12 02:48:18;;;;;;;3.55;3.25;;;;;;;;;;5008888;28;20034;-71
2021/11/12 02:50:44;;;;;;;1.85;1.35;;;;;;;;;;5008431;28;20041;-71
2021/11/12 02:53:14;;;;;;;0.88;0.88;;;;;;;;;;5007912;28;20426;-71
2021/11/12 02:55:41;;;;;;;0.65;0.65;;;;;;;;;;5007064;28;20084;-71
2021/11/12 02:58:07;;;;;;;1.73;1.23;;;;;;;;;;5009297;28;20382;-71
2021/11/12 03:00:35;;;;;;;8.20;2.40;;;;;;;;;;5009960;28;20432;-71
2021/11/12 03:03:01;;;;;;;1.60;1.50;;;;;;;;;;5010324;28;20560;-71
2021/11/12 03:05:27;;;;;;;3.45;2.45;;;;;;;;;;5008123;28;20036;-72
2021/11/12 03:07:53;;;;;;;0.90;0.68;;;;;;;;;;5008071;28;20088;-71
2021/11/12 03:10:19;;;;;;;3.67;3.20;;;;;;;;;;5007236;28;20583;-71
2021/11/12 03:12:45;;;;;;;4.47;1.60;;;;;;;;;;5011579;28;20117;-71
2021/11/12 03:15:11;;;;;;;9.70;3.45;;;;;;;;;;5010075;28;20398;-72
2021/11/12 03:17:38;;;;;;;2.50;2.33;;;;;;;;;;5008447;28;20496;-71
2021/11/12 03:20:05;;;;;;;2.60;2.38;;;;;;;;;;5008301;28;20040;-71
2021/11/12 03:22:39;;;;;;;0.60;0.60;;;;;;;;;;5007246;28;20502;-71
2021/11/12 03:25:23;;;;;;;1.88;1.77;;;;;;;;;;5006382;28;20041;-71
2021/11/12 03:31:18;;;;;;;1.52;1.42;;;;;;;;;;5009200;28;20034;-70
2021/11/12 03:47:09;;;;;;;2.25;0.77;;;;;;;;;;5011417;28;20124;-71
2021/11/12 04:03:40;;;;;;;4.85;2.45;;;;;;;;;;5010174;28;20109;-71
2021/11/12 04:06:30;;;;;;;0.70;0.70;;;;;;;;;;5005629;28;20032;-71
2021/11/12 04:17:27;;;;;;;0.82;0.82;;;;;;;;;;5010594;28;20057;-71
2021/11/12 04:20:21;;;;;;;0.70;0.70;;;;;;;;;;5007719;28;20145;-71
2021/11/12 04:41:55;;;;;;;5.22;2.20;;;;;;;;;;5010409;28;20667;-71
2021/11/12 04:49:24;;;;;;;1.42;1.33;;;;;;;;;;5008335;28;20103;-71
2021/11/12 05:02:41;;;;;;;6.88;3.25;;;;;;;;;;5009231;28;20033;-71
2021/11/12 05:50:34;;;;;;;17.65;1.15;;;;;;;;;;5002897;28;20802;-72
2021/11/12 05:55:45;;;;;;;3.33;1.95;;;;;;;;;;5003641;28;20044;-71
2021/11/12 05:58:11;;;;;;;2.03;1.33;;;;;;;;;;5003709;28;20129;-72
2021/11/12 06:00:36;;;;;;;3.03;1.52;;;;;;;;;;5009671;28;20412;-70
2021/11/12 06:03:02;;;;;;;3.33;2.53;;;;;;;;;;5007813;28;20120;-70
2021/11/12 06:05:29;;;;;;;1.35;1.23;;;;;;;;;;5008409;28;20112;-71
2021/11/12 06:07:55;;;;;;;1.95;1.08;;;;;;;;;;5008546;28;20481;-73
2021/11/12 06:10:21;;;;;;;3.20;2.17;;;;;;;;;;5009116;28;20036;-73
2021/11/12 06:12:48;;;;;;;6.30;2.28;;;;;;;;;;5012934;28;20064;-71
2021/11/12 06:15:18;;;;;;;3.35;2.15;;;;;;;;;;5007457;28;20037;-71
2021/11/12 06:17:45;;;;;;;5.25;2.53;;;;;;;;;;5005866;28;20033;-71
2021/11/12 06:20:12;;;;;;;11.35;3.03;;;;;;;;;;5009142;28;20037;-70
2021/11/12 06:22:38;;;;;;;1.73;0.68;;;;;;;;;;5008695;28;20041;-71
2021/11/12 06:25:04;;;;;;;2.42;1.58;;;;;;;;;;5018003;28;20040;-71
2021/11/12 06:27:30;;;;;;;2.58;2.38;;;;;;;;;;5012115;28;20147;-71
2021/11/12 06:29:56;;;;;;;1.40;1.30;;;;;;;;;;5008580;28;20522;-71
2021/11/12 06:32:23;;;;;;;1.63;1.52;;;;;;;;;;5009433;28;20030;-71
2021/11/12 06:34:49;;;;;;;1.25;0.65;;;;;;;;;;5008844;28;20045;-71
2021/11/12 06:37:15;;;;;;;2.30;1.25;;;;;;;;;;5009668;28;20018;-70
2021/11/12 06:39:41;;;;;;;0.82;0.82;;;;;;;;;;5008993;28;20030;-71
2021/11/12 06:42:19;;;;;;;1.42;1.33;;;;;;;;;;5008166;28;20042;-71
2021/11/12 06:50:04;;;;;;;2.55;1.50;;;;;;;;;;5007868;28;20554;-71
2021/11/12 06:52:31;;;;;;;1.38;1.27;;;;;;;;;;5009162;28;20029;-72
2021/11/12 06:55:04;;;;;;;2.42;1.80;;;;;;;;;;5008504;28;20033;-73
2021/11/12 06:57:30;;;;;;;3.35;1.45;;;;;;;;;;5013791;28;20496;-71
2021/11/12 06:59:56;;;;;;;12.82;3.60;;;;;;;;;;5007647;28;20046;-72
2021/11/12 07:02:22;;;;;;;1.75;1.63;;;;;;;;;;5008593;28;20567;-71
2021/11/12 07:04:49;;;;;;;4.65;3.08;;;;;;;;;;5008632;28;20030;-70
2021/11/12 07:07:15;;;;;;;5.05;2.10;;;;;;;;;;5012604;28;20026;-71
2021/11/12 07:09:42;;;;;;;2.58;2.38;;;;;;;;;;5012399;28;20092;-70
2021/11/12 07:12:08;;;;;;;5.47;2.85;;;;;;;;;;5011963;28;20058;-71
2021/11/12 07:14:35;;;;;;;3.75;1.42;;;;;;;;;;5012350;28;20030;-71
2021/11/12 07:17:02;;;;;;;5.88;3.15;;;;;;;;;;5011632;28;20520;-71
2021/11/12 07:19:28;;;;;;;9.00;2.63;;;;;;;;;;5011866;28;20028;-71
2021/11/12 07:21:57;;;;;;;5.40;2.58;;;;;;;;;;5011963;28;20037;-71
2021/11/12 07:24:23;;;;;;;4.30;2.55;;;;;;;;;;5017925;28;20046;-71
2021/11/12 07:26:49;;;;;;;2.00;1.90;;;;;;;;;;5012023;28;20026;-71
2021/11/12 07:29:17;;;;;;;4.88;2.58;;;;;;;;;;5011426;28;20072;-72
2021/11/12 07:31:44;;;;;;;3.20;1.98;;;;;;;;;;5003290;28;20026;-73
2021/11/12 07:34:10;;;;;;;13.75;1.90;;;;;;;;;;5016403;28;20022;-74
2021/11/12 07:36:38;;;;;;;0.80;0.80;;;;;;;;;;5020562;28;20480;-74
2021/11/12 07:39:09;;;;;;;5.93;2.78;;;;;;;;;;5015926;28;20404;-73
2021/11/12 07:47:15;;;;;;;1.13;1.08;;;;;;;;;;5018787;28;20460;-73
2021/11/12 07:49:41;;;;;;;2.10;1.33;;;;;;;;;;5017486;28;20567;-73
2021/11/12 07:52:08;;;;;;;5.28;2.15;;;;;;;;;;5017572;28;20030;-73
2021/11/12 07:54:34;;;;;;;5.43;0.65;;;;;;;;;;5018700;28;20045;-73
2021/11/12 07:57:01;;;;;;;2.08;1.75;;;;;;;;;;5016093;28;20025;-73
2021/11/12 07:59:30;;;;;;;2.53;1.10;;;;;;;;;;5017888;28;20366;-73
2021/11/12 08:01:56;;;;;;;1.20;1.20;;;;;;;;;;5019164;28;20026;-73
2021/11/12 08:04:23;;;;;;;0.98;0.98;;;;;;;;;;5020069;28;20090;-74
2021/11/12 08:06:51;;;;;;;1.40;1.30;;;;;;;;;;5017313;28;20076;-73
2021/11/12 08:09:20;;;;;;;7.57;1.75;;;;;;;;;;5018442;28;20044;-73
2021/11/12 08:11:56;;;;;;;1.42;1.35;;;;;;;;;;5018416;28;20403;-74
2021/11/12 08:14:39;;;;;;;1.50;1.02;;;;;;;;;;5014601;28;20030;-74
2021/11/12 08:17:17;;;;;;;0.70;0.70;;;;;;;;;;5016060;28;20631;-73
2021/11/12 08:22:37;;;;;;;0.88;0.88;;;;;;;;;;5014409;28;20128;-73
2021/11/12 08:32:45;;;;;;;0.43;0.43;;;;;;;;;;5018610;28;20033;-73
2021/11/12 08:35:23;;;;;;;3.55;1.65;;;;;;;;;;5017980;28;20032;-73
2021/11/12 08:37:57;;;;;;;1.80;1.70;;;;;;;;;;5016870;28;20544;-73
2021/11/12 08:43:05;;;;;;;2.15;2.05;;;;;;;;;;5015819;28;20044;-73
2021/11/12 08:45:44;;;;;;;3.97;2.97;;;;;;;;;;5018067;28;20030;-73
2021/11/12 08:48:15;;;;;;;17.95;2.35;;;;;;;;;;5015729;28;20469;-73
2021/11/12 08:50:42;;;;;;;1.65;1.55;;;;;;;;;;5017309;28;20063;-73
2021/11/12 08:53:10;;;;;;;3.65;3.35;;;;;;;;;;5017539;28;20025;-73
2021/11/12 08:55:37;;;;;;;3.40;1.65;;;;;;;;;;5014079;28;20682;-73
2021/11/12 08:58:05;;;;;;;5.82;1.80;;;;;;;;;;5013815;28;20039;-72
2021/11/12 09:00:31;;;;;;;1.67;1.30;;;;;;;;;;5015720;28;20025;-74
2021/11/12 09:02:58;;;;;;;1.15;1.15;;;;;;;;;;5016650;28;20053;-73
2021/11/12 09:05:25;;;;;;;1.83;1.15;;;;;;;;;;5017643;28;20811;-72
2021/11/12 09:07:52;;;;;;;1.63;0.82;;;;;;;;;;5016161;28;20009;-73
2021/11/12 09:10:19;;;;;;;1.75;1.65;;;;;;;;;;5016422;28;20037;-73
2021/11/12 09:12:48;;;;;;;0.85;0.85;;;;;;;;;;5017394;28;20404;-73
2021/11/12 09:15:23;;;;;;;1.63;1.52;;;;;;;;;;5014954;28;20091;-73
2021/11/12 09:17:49;;;;;;;2.78;0.80;;;;;;;;;;5015400;28;20497;-73
2021/11/12 09:20:16;;;;;;;16.50;1.10;;;;;;;;;;5008030;28;20036;-73
2021/11/12 09:22:42;;;;;;;3.90;1.45;;;;;;;;;;5017659;28;20020;-73
2021/11/12 09:25:09;;;;;;;4.80;2.67;;;;;;;;;;5015864;28;20388;-72
2021/11/12 09:27:35;;;;;;;2.25;1.70;;;;;;;;;;5015007;28;20432;-73
2021/11/12 09:30:02;;;;;;;2.13;2.00;;;;;;;;;;5016215;28;20128;-73
2021/11/12 09:32:28;;;;;;;2.65;2.45;;;;;;;;;;5013429;28;20038;-72
2021/11/12 09:34:54;;;;;;;1.35;1.25;;;;;;;;;;5014503;28;20027;-73
2021/11/12 09:37:21;;;;;;;1.05;1.05;;;;;;;;;;5016225;28;20649;-74
2021/11/12 09:39:52;;;;;;;1.20;1.00;;;;;;;;;;5015627;28;20034;-73
2021/11/12 09:42:18;;;;;;;;;;;;;;;;;;5016090;28;20649;-73
2021/11/12 09:44:44;;;;;;;6.40;1.92;;;;;;;;;;5013985;28;19917;-73
2021/11/12 09:47:10;;;;;;;4.63;0.88;;;;;;;;;;5014637;28;20029;-72
2021/11/12 09:49:37;;;;;;;4.40;2.50;;;;;;;;;;5014556;28;20034;-73
2021/11/12 09:52:06;;;;;;;1.25;0.77;;;;;;;;;;5016114;28;20125;-73
2021/11/12 09:54:32;;;;;;;1.92;1.80;;;;;;;;;;5014789;28;20105;-73
2021/11/12 09:56:57;;;;;;;2.70;1.35;;;;;;;;;;5015420;28;20120;-74
2021/11/12 09:59:23;;;;;;;2.20;1.27;;;;;;;;;;5016407;28;20072;-73
2021/11/12 10:01:49;;;;;;;2.88;1.25;;;;;;;;;;5015514;28;20044;-73
2021/11/12 10:04:16;;;;;;;5.72;0.95;;;;;;;;;;5015594;28;20026;-73
2021/11/12 10:06:43;;;;;;;1.33;1.13;;;;;;;;;;5016023;28;20308;-72
2021/11/12 10:09:16;;;;;;;1.85;1.67;;;;;;;;;;5016196;28;20501;-72
2021/11/12 10:11:49;;;;;;;0.57;0.55;;;;;;;;;;5016464;28;20420;-72
2021/11/12 10:14:17;;;;;;;2.92;2.00;;;;;;;;;;5012435;28;20072;-71
2021/11/12 10:16:54;;;;;;;1.20;1.17;;;;;;;;;;5015347;28;20022;-71
2021/11/12 10:19:20;;;;;;;16.45;1.52;;;;;;;;;;5013407;28;20068;-73
2021/11/12 10:21:48;;;;;;;3.30;1.88;;;;;;;;;;5016155;28;21130;-73
2021/11/12 10:24:19;;;;;;;2.20;2.00;;;;;;;;;;5014716;28;20057;-73
2021/11/12 10:26:46;;;;;;;2.22;2.00;;;;;;;;;;5016346;28;20068;-72
2021/11/12 10:29:14;;;;;;;0.93;0.93;;;;;;;;;;5013916;28;20037;-72
2021/11/12 10:31:42;;;;;;;1.15;1.08;;;;;;;;;;5015641;28;20033;-72
2021/11/12 10:34:12;;;;;;;0.98;0.85;;;;;;;;;;5010628;28;20033;-72
2021/11/12 10:36:52;;;;;;;3.33;1.87;;;;;;;;;;5013650;28;20018;-72
2021/11/12 10:39:25;;;;;;;0.38;0.38;;;;;;;;;;5015903;28;20605;-72
2021/11/12 10:41:51;;;;;;;2.70;2.00;;;;;;;;;;5018955;28;20033;-71
2021/11/12 10:44:17;;;;;;;0.95;0.88;;;;;;;;;;5018802;28;20135;-71
2021/11/12 10:46:43;;;;;;;0.65;0.65;;;;;;;;;;5020214;28;20121;-70
2021/11/12 10:49:27;;;;;;;1.67;1.33;;;;;;;;;;5016666;28;20063;-71
2021/11/12 10:51:58;;;;;;;4.05;2.03;;;;;;;;;;5018787;28;20061;-71
2021/11/12 10:54:55;;;;;;;0.90;0.88;;;;;;;;;;5019612;28;20566;-71
2021/11/12 10:57:23;;;;;;;1.85;0.63;;;;;;;;;;5018924;28;20033;-71
2021/11/12 10:59:56;;;;;;;1.55;0.95;;;;;;;;;;5014728;28;20058;-71
2021/11/12 11:02:33;;;;;;;0.47;0.47;;;;;;;;;;5015313;28;20048;-71
2021/11/12 11:05:04;;;;;;;4.43;2.88;;;;;;;;;;5016608;28;20037;-72
2021/11/12 11:07:31;;;;;;;0.25;0.25;;;;;;;;;;5018640;28;20037;-71
2021/11/12 11:09:58;;;;;;;1.75;0.80;;;;;;;;;;5018450;28;20069;-71
2021/11/12 11:12:38;;;;;;;1.15;1.13;;;;;;;;;;5017503;28;20041;-71
2021/11/12 11:15:18;;;;;;;0.45;0.45;;;;;;;;;;5018012;28;20021;-71
2021/11/12 11:17:46;;;;;;;0.73;0.60;;;;;;;;;;5016364;28;20029;-71
2021/11/12 11:20:18;;;;;;;0.85;0.85;;;;;;;;;;5016711;28;20026;-72
2021/11/12 11:22:45;;;;;;;1.00;1.00;;;;;;;;;;5017084;28;20026;-71
2021/11/12 11:25:11;;;;;;;1.20;0.95;;;;;;;;;;5018405;28;20036;-71
2021/11/12 11:27:37;;;;;;;2.05;0.88;;;;;;;;;;5017254;28;20080;-71
2021/11/12 11:30:04;;;;;;;1.10;1.08;;;;;;;;;;5016170;28;20033;-71
2021/11/12 11:32:31;;;;;;;1.65;0.60;;;;;;;;;;5018938;28;20041;-70
2021/11/12 11:34:58;;;;;;;0.65;0.65;;;;;;;;;;5018183;28;20389;-70
2021/11/12 11:37:24;;;;;;;1.75;1.38;;;;;;;;;;5018596;28;20129;-72
2021/11/12 11:39:50;;;;;;;2.30;1.00;;;;;;;;;;5019270;28;20030;-71
2021/11/12 11:42:16;;;;;;;0.63;0.63;;;;;;;;;;5018980;28;20088;-71
2021/11/12 11:44:43;;;;;;;7.35;2.42;;;;;;;;;;5019054;28;20025;-72
2021/11/12 11:47:09;;;;;;;2.00;1.63;;;;;;;;;;5016463;28;20030;-72
2021/11/12 11:49:37;;;;;;;1.10;0.93;;;;;;;;;;5015964;28;20033;-71
2021/11/12 11:52:04;;;;;;;2.20;1.45;;;;;;;;;;5017309;28;20033;-71
2021/11/12 11:54:44;;;;;;;0.20;0.20;;;;;;;;;;5017463;28;20560;-71
2021/11/12 11:57:15;;;;;;;4.18;1.30;;;;;;;;;;5018468;28;20568;-72
2021/11/12 11:59:43;;;;;;;0.80;0.80;;;;;;;;;;5017928;28;20045;-71
2021/11/12 12:02:16;;;;;;;2.47;1.48;;;;;;;;;;5019941;28;20057;-71
2021/11/12 12:04:42;;;;;;;1.23;0.90;;;;;;;;;;5017830;28;20064;-71
2021/11/12 12:07:19;;;;;;;0.75;0.75;;;;;;;;;;5018091;28;20116;-71
2021/11/12 12:09:50;;;;;;;1.58;1.23;;;;;;;;;;5006111;28;20056;-73
2021/11/12 12:12:16;;;;;;;;;;;;;;;;;;5010280;28;20148;-73
2021/11/12 12:14:42;;;;;;;0.75;0.57;;;;;;;;;;5009511;28;19988;-73
2021/11/12 12:17:14;;;;;;;0.30;0.30;;;;;;;;;;5014105;28;20037;-72
2021/11/12 12:20:00;;;;;;;3.95;2.15;;;;;;;;;;5018988;28;20072;-72
2021/11/12 12:31:08;;;;;;;0.28;0.28;;;;;;;;;;5011635;28;20116;-72
2021/11/12 13:19:47;;;;;;;5.22;1.00;;;;;;;;;;5010161;28;20041;-73
2021/11/12 13:22:04;;;;;;;0.40;0.40;;;;;;;;;;5006573;28;20109;-72
2021/11/12 13:24:39;;;;;;;0.73;0.55;;;;;;;;;;5005477;28;20030;-73
2021/11/12 13:27:05;;;;;;;0.30;0.30;;;;;;;;;;5009991;28;20037;-73
2021/11/12 13:29:32;;;;;;;1.10;1.00;;;;;;;;;;5013115;28;20025;-71
2021/11/12 13:31:59;;;;;;;0.73;0.70;;;;;;;;;;5008152;28;20428;-72
2021/11/12 13:34:27;;;;;;;0.55;0.55;;;;;;;;;;5009105;28;20026;-72
2021/11/12 13:36:53;;;;;;;0.38;0.38;;;;;;;;;;5008386;28;20637;-70
2021/11/12 13:39:19;;;;;;;0.68;0.68;;;;;;;;;;5007775;28;20477;-70
2021/11/12 13:41:50;;;;;;;0.85;0.50;;;;;;;;;;5007730;28;20040;-70
2021/11/12 13:44:18;;;;;;;0.27;0.27;;;;;;;;;;5006116;28;20025;-71
2021/11/12 13:46:58;;;;;;;0.20;0.20;;;;;;;;;;5001040;28;20037;-71
2021/11/12 13:49:32;;;;;;;0.10;0.10;;;;;;;;;;5005363;28;20095;-72
2021/11/12 13:52:05;;;;;;;0.30;0.30;;;;;;;;;;5008753;28;20018;-70
2021/11/12 13:54:43;;;;;;;0.50;0.50;;;;;;;;;;5010611;28;20492;-71
2021/11/12 13:57:14;;;;;;;0.75;0.40;;;;;;;;;;5011017;28;20045;-73
2021/11/12 13:59:59;;;;;;;0.15;0.15;;;;;;;;;;5008909;28;20474;-70
2021/11/12 14:02:25;;;;;;;0.05;0.05;;;;;;;;;;5009574;28;20141;-72
2021/11/12 14:04:52;;;;;;;2.33;0.95;;;;;;;;;;5009650;28;20442;-71
2021/11/12 14:07:20;;;;;;;0.20;0.20;;;;;;;;;;5008334;28;20036;-70
2021/11/12 14:10:00;;;;;;;0.35;0.35;;;;;;;;;;5020455;28;20025;-71
2021/11/12 14:12:26;;;;;;;0.15;0.15;;;;;;;;;;5009049;28;20033;-71
2021/11/12 14:15:03;;;;;;;0.30;0.30;;;;;;;;;;5009219;28;20157;-70
2021/11/12 14:17:31;;;;;;;0.40;0.40;;;;;;;;;;5009611;28;20080;-71
2021/11/12 14:20:19;;;;;;;0.28;0.15;;;;;;;;;;5009676;28;20093;-71
2021/11/12 14:23:04;;;;;;;0.25;0.25;;;;;;;;;;5009578;28;20022;-70
2021/11/12 14:25:43;;;;;;;0.30;0.28;;;;;;;;;;5009225;28;20022;-71
2021/11/12 14:28:20;;;;;;;0.15;0.15;;;;;;;;;;5009370;28;20034;-71
2021/11/12 14:31:05;;;;;;;0.10;0.10;;;;;;;;;;5008702;28;20032;-71
2021/11/12 14:33:39;;;;;;;0.28;0.28;;;;;;;;;;5008027;28;20683;-71
2021/11/12 14:36:45;;;;;;;1.75;0.82;;;;;;;;;;5004986;28;20096;-72
2021/11/12 14:39:18;;;;;;;0.13;0.13;;;;;;;;;;5005910;28;20080;-74
2021/11/12 14:42:12;;;;;;;0.75;0.75;;;;;;;;;;5008226;28;20040;-71
2021/11/12 14:45:08;;;;;;;0.52;0.52;;;;;;;;;;5003906;28;20400;-71
2021/11/12 14:47:55;;;;;;;2.22;1.50;;;;;;;;;;5003080;28;20583;-71
2021/11/12 14:53:14;;;;;;;2.20;0.93;;;;;;;;;;5008037;28;20531;-71
2021/11/12 14:55:45;;;;;;;0.40;0.40;;;;;;;;;;5010129;28;20044;-71
2021/11/12 14:58:17;;;;;;;0.50;0.32;;;;;;;;;;5008872;28;20042;-71
2021/11/12 15:00:44;;;;;;;0.22;0.22;;;;;;;;;;5008695;28;20105;-71
2021/11/12 15:03:10;;;;;;;0.47;0.47;;;;;;;;;;5007871;28;20038;-70
2021/11/12 15:05:37;;;;;;;0.40;0.40;;;;;;;;;;5008289;28;20053;-71
2021/11/12 15:08:10;;;;;;;1.45;0.73;;;;;;;;;;5005994;28;20034;-70
2021/11/12 15:10:36;;;;;;;0.20;0.20;;;;;;;;;;5008702;28;20050;-71
2021/11/12 15:13:05;;;;;;;7.22;2.22;;;;;;;;;;5006791;28;20018;-70
2021/11/12 15:15:33;;;;;;;0.20;0.20;;;;;;;;;;5004809;28;20026;-72
2021/11/12 15:18:04;;;;;;;1.65;0.88;;;;;;;;;;5007978;28;20018;-72
2021/11/12 15:20:30;;;;;;;0.75;0.75;;;;;;;;;;5008903;28;20022;-72
2021/11/12 15:23:28;;;;;;;2.15;1.25;;;;;;;;;;5006104;28;20022;-72
2021/11/12 15:28:34;;;;;;;5.57;1.65;;;;;;;;;;5015261;28;20043;-71
2021/11/12 15:31:09;;;;;;;0.77;0.55;;;;;;;;;;5007572;28;20038;-71
2021/11/12 15:33:35;;;;;;;0.43;0.30;;;;;;;;;;5010168;28;20544;-72
2021/11/12 15:36:04;;;;;;;0.70;0.70;;;;;;;;;;5006448;28;20026;-72
2021/11/12 15:38:38;;;;;;;0.15;0.15;;;;;;;;;;5009037;28;20024;-72
2021/11/12 15:41:10;;;;;;;0.25;0.25;;;;;;;;;;5001112;28;20104;-72
2021/11/12 15:46:12;;;;;;;0.35;0.35;;;;;;;;;;5009364;28;20041;-72
2021/11/12 15:48:40;;;;;;;0.30;0.30;;;;;;;;;;5008440;28;20523;-72
2021/11/12 15:51:21;;;;;;;1.42;1.15;;;;;;;;;;5015098;28;20029;-72
2021/11/12 15:54:02;;;;;;;1.00;0.90;;;;;;;;;;5010947;28;20037;-72
2021/11/12 15:56:54;;;;;;;1.48;1.38;;;;;;;;;;5012230;28;20022;-73
2021/11/12 16:12:29;;;;;;;2.10;0.77;;;;;;;;;;5014978;28;20040;-70
2021/11/12 16:23:15;;;;;;;1.48;0.93;;;;;;;;;;5009095;28;20120;-70
2021/11/12 16:25:42;;;;;;;2.78;1.65;;;;;;;;;;5006803;28;20030;-71
2021/11/12 16:28:12;;;;;;;0.43;0.43;;;;;;;;;;5011318;28;20049;-70
2021/11/12 16:30:39;;;;;;;3.78;1.77;;;;;;;;;;5010963;28;20406;-70
2021/11/12 16:33:06;;;;;;;0.55;0.55;;;;;;;;;;5007597;28;20045;-71
2021/11/12 16:35:35;;;;;;;0.85;0.75;;;;;;;;;;5010820;28;20038;-70
2021/11/12 16:38:17;;;;;;;0.93;0.88;;;;;;;;;;5009025;28;20038;-70
2021/11/12 16:40:47;;;;;;;1.92;1.13;;;;;;;;;;5010695;28;20026;-70
2021/11/12 16:43:27;;;;;;;0.57;0.57;;;;;;;;;;5010687;28;20584;-70
2021/11/12 17:04:30;;;;;;;0.60;0.60;;;;;;;;;;5004660;28;20096;-71
2021/11/12 17:12:31;;;;;;;0.75;0.75;;;;;;;;;;5010603;28;20052;-71
2021/11/12 17:15:20;;;;;;;0.53;0.53;;;;;;;;;;4999434;28;20065;-70
2021/11/12 17:18:14;;;;;;;0.40;0.40;;;;;;;;;;5010748;28;20030;-71
2021/11/12 17:20:54;;;;;;;0.50;0.50;;;;;;;;;;5015822;28;20049;-71
2021/11/12 17:45:50;;;;;;;4.65;2.38;;;;;;;;;;5007830;28;20044;-74
2021/11/12 17:49:06;;;;;;;1.52;1.42;;;;;;;;;;5009822;28;20037;-75
2021/11/12 17:51:33;;;;;;;0.28;0.28;;;;;;;;;;4997798;28;20038;-74
2021/11/12 18:04:46;;;;;;;2.83;1.15;;;;;;;;;;5002250;28;20096;-74
2021/11/12 18:07:32;;;;;;;5.50;1.45;;;;;;;;;;5007568;28;20160;-73
2021/11/12 18:13:01;;;;;;;1.65;1.55;;;;;;;;;;5009223;28;20041;-73
2021/11/12 21:43:50;;;;;;;6.30;1.63;;;;;;;;;;5005453;28;20137;-70
2021/11/12 21:46:23;;;;;;;1.52;1.42;;;;;;;;;;4994709;28;20105;-70
2021/11/12 21:48:58;;;;;;;1.38;0.80;;;;;;;;;;5008748;28;20052;-69
2021/11/12 21:51:25;;;;;;;1.92;1.83;;;;;;;;;;5009145;28;20378;-69
2021/11/12 21:53:55;;;;;;;1.73;1.08;;;;;;;;;;5006416;28;20033;-72
2021/11/12 21:56:21;;;;;;;4.60;1.40;;;;;;;;;;5013105;28;20056;-68
2021/11/12 21:58:47;;;;;;;1.80;1.42;;;;;;;;;;4997014;28;20078;-69
2021/11/12 22:01:13;;;;;;;11.85;3.53;;;;;;;;;;5000958;28;20548;-69
2021/11/12 22:03:39;;;;;;;1.20;1.17;;;;;;;;;;5002375;28;20030;-70
2021/11/12 22:06:05;;;;;;;1.70;1.58;;;;;;;;;;4999812;28;20057;-69
2021/11/12 22:08:33;;;;;;;2.10;1.40;;;;;;;;;;5009576;28;20565;-69
2021/11/12 22:10:59;;;;;;;1.20;1.13;;;;;;;;;;5008717;28;20140;-69
2021/11/12 22:13:25;;;;;;;0.82;0.80;;;;;;;;;;5009462;28;20034;-70
2021/11/12 22:15:52;;;;;;;4.75;2.30;;;;;;;;;;5000323;28;20040;-70
2021/11/12 22:18:18;;;;;;;1.63;1.58;;;;;;;;;;5003493;28;20492;-70
2021/11/12 22:20:44;;;;;;;1.23;1.13;;;;;;;;;;5009300;28;20030;-69
2021/11/12 22:23:10;;;;;;;1.45;1.38;;;;;;;;;;5006095;28;20036;-69
2021/11/12 22:25:36;;;;;;;1.75;1.65;;;;;;;;;;5004951;28;20436;-69
2021/11/12 22:28:02;;;;;;;1.83;1.73;;;;;;;;;;5008621;28;20040;-71
2021/11/12 22:30:29;;;;;;;2.83;2.33;;;;;;;;;;5009174;28;20041;-71
2021/11/12 22:32:55;;;;;;;3.42;1.85;;;;;;;;;;5008470;28;20493;-71
2021/11/12 22:35:23;;;;;;;2.67;1.88;;;;;;;;;;5008107;28;20028;-70
2021/11/12 22:37:49;;;;;;;10.98;2.67;;;;;;;;;;5004800;28;20771;-69
2021/11/12 22:40:15;;;;;;;1.17;1.08;;;;;;;;;;5014920;28;20037;-70
2021/11/12 22:42:41;;;;;;;5.22;2.58;;;;;;;;;;5009635;28;20026;-69
2021/11/12 22:45:07;;;;;;;2.40;2.30;;;;;;;;;;5010175;28;20120;-69
2021/11/12 22:47:33;;;;;;;4.45;3.78;;;;;;;;;;5008982;28;20025;-69
2021/11/12 22:50:00;;;;;;;2.03;1.85;;;;;;;;;;5011697;28;20060;-69
2021/11/12 22:52:26;;;;;;;9.30;3.53;;;;;;;;;;5015505;28;20025;-69
2021/11/12 22:54:52;;;;;;;8.20;2.58;;;;;;;;;;5014992;28;20500;-69
2021/11/12 22:57:18;;;;;;;3.88;1.67;;;;;;;;;;5016580;28;20053;-69
2021/11/12 22:59:45;;;;;;;1.23;1.13;;;;;;;;;;5013838;28;20115;-69
2021/11/12 23:02:11;;;;;;;4.00;1.73;;;;;;;;;;5014081;28;20542;-70
2021/11/12 23:04:37;;;;;;;0.85;0.85;;;;;;;;;;5011141;28;20033;-69
2021/11/12 23:07:03;;;;;;;2.15;1.80;;;;;;;;;;5009422;28;20393;-71
2021/11/12 23:09:29;;;;;;;2.33;2.22;;;;;;;;;;5012286;28;20428;-72
2021/11/12 23:11:55;;;;;;;6.95;1.25;;;;;;;;;;5006468;28;20065;-68
2021/11/12 23:14:28;;;;;;;11.82;3.35;;;;;;;;;;5009135;28;20034;-69
2021/11/12 23:16:54;;;;;;;6.72;1.25;;;;;;;;;;5015277;28;20076;-72
2021/11/12 23:19:20;;;;;;;0.38;0.38;;;;;;;;;;5009375;28;20034;-72
2021/11/12 23:21:46;;;;;;;2.08;1.95;;;;;;;;;;5008138;28;20041;-71
2021/11/12 23:24:12;;;;;;;0.70;0.70;;;;;;;;;;5010318;28;20042;-72
2021/11/12 23:26:41;;;;;;;2.90;1.42;;;;;;;;;;5010953;28;20034;-72
2021/11/12 23:29:07;;;;;;;1.25;1.15;;;;;;;;;;5009163;28;20068;-72
2021/11/12 23:31:33;;;;;;;6.03;2.20;;;;;;;;;;5012032;28;20029;-73
2021/11/12 23:34:00;;;;;;;4.25;3.03;;;;;;;;;;5014054;28;20053;-73
2021/11/12 23:36:26;;;;;;;3.00;2.05;;;;;;;;;;5014071;28;20030;-73
2021/11/12 23:38:52;;;;;;;1.85;1.30;;;;;;;;;;5015573;28;20028;-73
2021/11/12 23:41:18;;;;;;;4.10;2.70;;;;;;;;;;5013324;28;20392;-73
2021/11/12 23:43:47;;;;;;;2.65;1.55;;;;;;;;;;5013740;28;20564;-73